createdAt,value
2018-08-27T00:03:04.177Z,88.23
2018-08-27T00:07:59.563Z,85.25
2018-08-27T00:12:56.451Z,83.92
2018-08-27T00:17:51.825Z,83.53
2018-08-27T00:22:47.791Z,82.86
2018-08-27T00:27:43.948Z,80.32
2018-08-27T00:32:40.164Z,80.79
2018-08-27T00:37:36.036Z,81.46
2018-08-27T00:42:32.921Z,82.04
2018-08-27T00:47:29.129Z,82.52
2018-08-27T00:52:25.141Z,83.25
2018-08-27T00:57:21.475Z,84.30
2018-08-27T01:02:17.355Z,83.25
2018-08-27T01:07:13.315Z,83.19
2018-08-27T01:12:09.105Z,83.53
2018-08-27T01:17:04.904Z,83.63
2018-08-27T01:22:01.615Z,84.20
2018-08-27T01:26:57.314Z,84.25
2018-08-27T01:31:54.306Z,84.72
2018-08-27T01:36:49.803Z,84.20
2018-08-27T01:41:45.959Z,84.53
2018-08-27T01:46:42.870Z,84.72
2018-08-27T01:51:38.244Z,85.78
2018-08-27T01:56:33.999Z,85.35
2018-08-27T02:01:30.281Z,85.93
2018-08-27T02:06:25.950Z,86.16
2018-08-27T02:11:22.101Z,87.60
2018-08-27T02:16:17.925Z,87.98
2018-08-27T02:21:13.830Z,88.65
2018-08-27T02:26:09.775Z,90.00
2018-08-27T02:31:06.076Z,89.13
2018-08-27T02:36:01.728Z,90.09
2018-08-27T02:40:57.528Z,90.76
2018-08-27T02:45:53.587Z,91.58
2018-08-27T02:50:49.315Z,92.06
2018-08-27T02:55:45.361Z,97.23
2018-08-27T03:00:41.563Z,99.99
2018-08-27T03:05:37.249Z,99.99
2018-08-27T03:10:33.259Z,99.99
2018-08-27T03:15:29.663Z,99.99
2018-08-27T03:20:25.380Z,99.99
2018-08-27T03:25:21.038Z,99.99
2018-08-27T03:30:16.889Z,99.99
2018-08-27T03:35:13.926Z,99.99
2018-08-27T03:40:09.376Z,99.99
2018-08-27T03:45:05.261Z,99.99
2018-08-27T03:50:02.395Z,99.99
2018-08-27T03:54:57.812Z,99.99
2018-08-27T03:59:53.771Z,99.99
2018-08-27T04:04:49.793Z,99.99
2018-08-27T04:09:47.023Z,99.99
2018-08-27T04:14:43.448Z,99.99
2018-08-27T04:19:39.943Z,99.99
2018-08-27T04:24:36.031Z,99.99
2018-08-27T04:29:31.529Z,99.99
2018-08-27T04:34:27.899Z,99.99
2018-08-27T04:39:24.453Z,99.99
2018-08-27T04:44:20.312Z,99.99
2018-08-27T04:49:17.005Z,99.99
2018-08-27T04:54:12.651Z,99.99
2018-08-27T04:59:08.396Z,99.99
2018-08-27T05:04:04.118Z,99.99
2018-08-27T05:08:59.954Z,99.99
2018-08-27T05:13:55.428Z,99.99
2018-08-27T05:18:51.705Z,99.99
2018-08-27T05:23:47.389Z,99.99
2018-08-27T05:28:43.270Z,99.99
2018-08-27T05:33:39.842Z,99.99
2018-08-27T05:38:36.826Z,99.99
2018-08-27T05:43:32.239Z,99.99
2018-08-27T05:48:28.164Z,99.99
2018-08-27T05:53:23.929Z,99.99
2018-08-27T05:58:19.970Z,99.99
2018-08-27T06:03:16.733Z,99.99
2018-08-27T06:08:12.290Z,99.99
2018-08-27T06:13:08.376Z,99.99
2018-08-27T06:18:04.101Z,99.99
2018-08-27T06:23:00.338Z,99.99
2018-08-27T06:27:56.159Z,99.99
2018-08-27T06:32:51.962Z,99.99
2018-08-27T06:37:48.541Z,99.99
2018-08-27T06:42:45.346Z,99.99
2018-08-27T06:47:40.678Z,99.99
2018-08-27T06:52:36.794Z,99.99
2018-08-27T06:57:33.776Z,99.99
2018-08-27T07:02:29.125Z,99.99
2018-08-27T07:07:24.935Z,99.99
2018-08-27T07:12:21.825Z,99.99
2018-08-27T07:17:18.306Z,99.99
2018-08-27T07:22:14.170Z,99.99
2018-08-27T07:27:10.052Z,99.99
2018-08-27T07:32:06.612Z,99.99
2018-08-27T07:37:03.648Z,99.99
2018-08-27T07:41:59.265Z,99.99
2018-08-27T07:46:55.124Z,99.99
2018-08-27T07:51:51.097Z,99.99
2018-08-27T07:56:48.073Z,99.99
2018-08-27T08:01:44.660Z,99.99
2018-08-27T08:06:41.252Z,99.99
2018-08-27T08:11:37.283Z,99.99
2018-08-27T08:16:33.479Z,99.99
2018-08-27T08:21:29.179Z,99.99
2018-08-27T08:26:25.152Z,99.99
2018-08-27T08:31:20.950Z,99.99
2018-08-27T08:36:17.663Z,99.99
2018-08-27T08:41:13.750Z,99.99
2018-08-27T08:46:10.614Z,99.99
2018-08-27T08:51:06.712Z,99.99
2018-08-27T08:56:02.238Z,99.99
2018-08-27T09:00:59.449Z,99.99
2018-08-27T09:05:55.080Z,99.99
2018-08-27T09:10:51.041Z,99.99
2018-08-27T09:15:47.474Z,99.99
2018-08-27T09:20:43.326Z,99.99
2018-08-27T09:25:40.430Z,99.99
2018-08-27T09:30:36.226Z,99.99
2018-08-27T09:35:32.355Z,99.99
2018-08-27T09:40:28.265Z,99.99
2018-08-27T09:45:24.136Z,99.99
2018-08-27T09:50:21.198Z,99.99
2018-08-27T09:55:16.992Z,99.99
2018-08-27T10:00:14.076Z,99.99
2018-08-27T10:05:11.385Z,99.99
2018-08-27T10:10:07.208Z,99.99
2018-08-27T10:15:03.365Z,99.99
2018-08-27T10:19:59.274Z,99.99
2018-08-27T10:24:56.658Z,99.99
2018-08-27T10:29:52.436Z,99.99
2018-08-27T10:34:48.419Z,99.99
2018-08-27T10:39:44.391Z,99.99
2018-08-27T10:44:40.188Z,99.99
2018-08-27T10:49:36.232Z,99.99
2018-08-27T10:54:32.312Z,99.99
2018-08-27T10:59:28.441Z,99.99
2018-08-27T11:04:24.643Z,99.99
2018-08-27T11:09:20.742Z,99.99
2018-08-27T11:14:16.489Z,99.99
2018-08-27T11:19:13.512Z,99.99
2018-08-27T11:24:09.788Z,99.99
2018-08-27T11:29:06.136Z,99.99
2018-08-27T11:34:04.500Z,99.99
2018-08-27T11:39:02.038Z,99.99
2018-08-27T11:43:57.311Z,99.99
2018-08-27T11:48:53.791Z,99.99
2018-08-27T11:53:48.693Z,99.99
2018-08-27T11:58:44.138Z,99.99
2018-08-27T12:03:39.528Z,99.99
2018-08-27T12:08:35.404Z,99.99
2018-08-27T12:13:31.730Z,99.99
2018-08-27T12:18:29.276Z,99.99
2018-08-27T12:23:25.317Z,99.99
2018-08-27T12:28:22.359Z,99.99
2018-08-27T12:33:18.676Z,97.42
2018-08-27T12:38:15.627Z,92.08
2018-08-27T12:43:11.792Z,88.89
2018-08-27T12:48:08.677Z,87.64
2018-08-27T12:53:04.734Z,85.42
2018-08-27T12:58:01.661Z,84.84
2018-08-27T13:02:58.444Z,83.88
2018-08-27T13:07:53.981Z,84.17
2018-08-27T13:12:49.443Z,85.09
2018-08-27T13:17:44.903Z,87.40
2018-08-27T13:22:43.022Z,86.44
2018-08-27T13:27:39.037Z,83.07
2018-08-27T13:32:35.139Z,83.40
2018-08-27T13:37:31.944Z,85.28
2018-08-27T13:42:27.397Z,87.21
2018-08-27T13:47:23.578Z,86.44
2018-08-27T13:52:20.909Z,86.63
2018-08-27T13:57:16.671Z,84.52
2018-08-27T14:02:13.143Z,81.04
2018-08-27T14:07:09.143Z,78.50
2018-08-27T14:12:04.941Z,77.92
2018-08-27T14:17:00.894Z,78.34
2018-08-27T14:21:58.280Z,77.28
2018-08-27T14:26:53.768Z,77.76
2018-08-27T14:31:49.751Z,78.25
2018-08-27T14:36:45.919Z,79.36
2018-08-27T14:41:42.771Z,80.71
2018-08-27T14:46:38.732Z,82.06
2018-08-27T14:51:34.582Z,82.64
2018-08-27T14:56:30.380Z,83.89
2018-08-27T15:01:26.323Z,81.48
2018-08-27T15:06:22.260Z,81.04
2018-08-27T15:11:18.167Z,79.69
2018-08-27T15:16:14.102Z,78.40
2018-08-27T15:21:09.919Z,77.48
2018-08-27T15:26:05.790Z,76.76
2018-08-27T15:31:03.045Z,75.61
2018-08-27T15:35:58.620Z,77.31
2018-08-27T15:40:55.242Z,78.27
2018-08-27T15:45:50.948Z,78.46
2018-08-27T15:50:46.686Z,79.23
2018-08-27T15:55:42.848Z,80.00
2018-08-27T16:00:38.753Z,79.52
2018-08-27T16:05:35.510Z,79.48
2018-08-27T16:10:30.696Z,80.92
2018-08-27T16:15:27.024Z,82.27
2018-08-27T16:20:22.718Z,83.14
2018-08-27T16:25:19.730Z,83.14
2018-08-27T16:30:16.474Z,83.81
2018-08-27T16:35:12.387Z,84.06
2018-08-27T16:40:07.841Z,85.06
2018-08-27T16:45:04.005Z,85.21
2018-08-27T16:49:59.852Z,85.11
2018-08-27T16:54:55.680Z,85.31
2018-08-27T16:59:52.504Z,84.78
2018-08-27T17:04:48.004Z,84.69
2018-08-27T17:09:45.168Z,84.69
2018-08-27T17:14:41.624Z,84.69
2018-08-27T17:19:38.337Z,84.40
2018-08-27T17:24:34.810Z,84.50
2018-08-27T17:29:30.222Z,83.83
2018-08-27T17:34:25.830Z,84.07
2018-08-27T17:39:21.483Z,84.94
2018-08-27T17:44:16.792Z,85.13
2018-08-27T17:49:12.467Z,85.51
2018-08-27T17:54:08.317Z,86.38
2018-08-27T17:59:04.227Z,87.10
2018-08-27T18:04:00.911Z,87.43
2018-08-27T18:08:56.462Z,87.87
2018-08-27T18:13:52.259Z,88.06
2018-08-27T18:18:48.410Z,88.35
2018-08-27T18:23:44.068Z,89.60
2018-08-27T18:28:40.117Z,89.60
2018-08-27T18:33:36.314Z,90.75
2018-08-27T18:38:32.109Z,91.42
2018-08-27T18:43:27.870Z,91.86
2018-08-27T18:48:23.733Z,92.43
2018-08-27T18:53:19.703Z,93.20
2018-08-27T18:58:16.646Z,93.77
2018-08-27T19:03:12.966Z,94.64
2018-08-27T19:08:08.992Z,95.21
2018-08-27T19:13:04.900Z,95.60
2018-08-27T19:18:01.088Z,96.75
2018-08-27T19:22:57.054Z,97.24
2018-08-27T19:27:52.896Z,97.14
2018-08-27T19:32:49.435Z,98.38
2018-08-27T19:37:45.791Z,98.19
2018-08-27T19:42:41.428Z,98.77
2018-08-27T19:47:37.531Z,99.29
2018-08-27T19:52:33.275Z,99.82
2018-08-27T19:57:29.189Z,99.99
2018-08-27T20:02:25.040Z,99.99
2018-08-27T20:07:21.708Z,99.77
2018-08-27T20:12:18.611Z,99.49
2018-08-27T20:17:14.243Z,99.87
2018-08-27T20:22:10.294Z,99.87
2018-08-27T20:27:06.175Z,99.49
2018-08-27T20:32:01.721Z,99.68
2018-08-27T20:36:57.958Z,99.99
2018-08-27T20:41:53.623Z,99.87
2018-08-27T20:46:49.527Z,99.99
2018-08-27T20:51:45.377Z,99.68
2018-08-27T20:56:41.331Z,99.96
2018-08-27T21:01:37.320Z,99.99
2018-08-27T21:06:33.880Z,99.99
2018-08-27T21:11:30.359Z,99.99
2018-08-27T21:16:25.589Z,99.99
2018-08-27T21:21:21.262Z,99.99
2018-08-27T21:26:17.169Z,99.99
2018-08-27T21:31:13.098Z,99.99
2018-08-27T21:36:08.691Z,99.99
2018-08-27T21:41:05.103Z,99.99
2018-08-27T21:46:01.189Z,99.99
2018-08-27T21:50:57.172Z,99.99
2018-08-27T21:55:52.905Z,99.99
2018-08-27T22:00:48.449Z,99.99
2018-08-27T22:05:44.527Z,99.99
2018-08-27T22:10:40.174Z,99.99
2018-08-27T22:15:37.371Z,99.99
2018-08-27T22:20:33.024Z,99.99
2018-08-27T22:25:28.737Z,99.99
2018-08-27T22:30:25.594Z,99.99
2018-08-27T22:35:21.132Z,99.99
2018-08-27T22:40:17.936Z,99.99
2018-08-27T22:45:13.460Z,99.99
2018-08-27T22:50:08.965Z,99.99
2018-08-27T22:55:05.694Z,99.99
2018-08-27T23:00:02.254Z,99.99
2018-08-27T23:04:57.259Z,99.99
2018-08-27T23:09:53.821Z,99.99
2018-08-27T23:14:49.590Z,99.99
2018-08-27T23:19:46.359Z,99.99
2018-08-27T23:24:41.899Z,99.99
2018-08-27T23:29:37.989Z,99.99
2018-08-27T23:34:34.008Z,99.99
2018-08-27T23:39:30.085Z,99.99
2018-08-27T23:44:25.738Z,99.99
2018-08-27T23:49:22.646Z,99.99
2018-08-27T23:54:18.175Z,99.99
2018-08-27T23:59:14.604Z,99.99
